createdAt,value
2019-04-25T00:01:40.140Z,4.37
2019-04-25T00:04:08.946Z,5.80
2019-04-25T00:06:38.668Z,5.27
2019-04-25T00:09:11.926Z,5.93
2019-04-25T00:11:42.981Z,5.50
2019-04-25T00:14:13.234Z,4.90
2019-04-25T00:16:44.125Z,5.30
2019-04-25T00:19:13.439Z,6.17
2019-04-25T00:21:43.648Z,5.90
2019-04-25T00:24:31.782Z,6.30
2019-04-25T00:27:02.110Z,6.60
2019-04-25T00:29:31.852Z,6.37
2019-04-25T00:32:01.649Z,5.97
2019-04-25T00:34:31.678Z,8.17
2019-04-25T00:37:02.331Z,5.90
2019-04-25T00:39:31.928Z,4.63
2019-04-25T00:42:02.154Z,4.90
2019-04-25T00:44:31.950Z,4.70
2019-04-25T00:47:02.277Z,5.90
2019-04-25T00:49:32.248Z,5.50
2019-04-25T00:52:01.946Z,5.07
2019-04-25T00:54:31.373Z,4.60
2019-04-25T00:56:59.977Z,4.70
2019-04-25T00:59:31.950Z,3.90
2019-04-25T01:02:07.547Z,4.57
2019-04-25T01:04:35.254Z,4.63
2019-04-25T01:07:03.735Z,3.67
2019-04-25T01:09:32.401Z,3.63
2019-04-25T01:12:03.750Z,3.70
2019-04-25T01:14:31.686Z,3.40
2019-04-25T01:17:01.788Z,4.10
2019-04-25T01:19:30.415Z,4.60
2019-04-25T01:21:58.936Z,4.30
2019-04-25T01:24:27.573Z,5.40
2019-04-25T01:26:56.022Z,4.70
2019-04-25T01:29:24.579Z,3.33
2019-04-25T01:31:54.408Z,3.90
2019-04-25T01:34:25.829Z,4.30
2019-04-25T01:37:02.133Z,3.73
2019-04-25T01:39:34.086Z,3.53
2019-04-25T01:42:16.044Z,3.83
2019-04-25T01:44:46.203Z,3.67
2019-04-25T01:47:16.111Z,4.50
2019-04-25T01:49:44.559Z,4.37
2019-04-25T01:52:13.673Z,4.30
2019-04-25T01:54:43.771Z,4.43
2019-04-25T01:57:14.248Z,5.20
2019-04-25T01:59:43.870Z,5.10
2019-04-25T02:02:14.315Z,5.37
2019-04-25T02:04:44.281Z,4.20
2019-04-25T02:07:13.499Z,4.40
2019-04-25T02:09:43.466Z,3.57
2019-04-25T02:12:15.456Z,2.77
2019-04-25T02:14:43.998Z,2.70
2019-04-25T02:17:14.020Z,2.70
2019-04-25T02:19:44.157Z,3.60
2019-04-25T02:22:14.433Z,2.73
2019-04-25T02:24:43.717Z,2.77
2019-04-25T02:27:13.405Z,4.30
2019-04-25T02:29:43.264Z,3.93
2019-04-25T02:32:14.577Z,4.00
2019-04-25T02:34:45.288Z,4.27
2019-04-25T02:37:14.626Z,4.07
2019-04-25T02:39:44.773Z,4.07
2019-04-25T02:42:16.285Z,4.27
2019-04-25T02:44:45.585Z,4.03
2019-04-25T02:47:34.257Z,4.17
2019-04-25T02:50:20.152Z,3.67
2019-04-25T02:52:50.246Z,3.90
2019-04-25T02:55:30.984Z,3.63
2019-04-25T02:57:48.889Z,3.33
2019-04-25T03:00:24.909Z,3.57
2019-04-25T03:02:54.754Z,3.60
2019-04-25T03:05:25.541Z,3.30
2019-04-25T03:07:54.538Z,4.07
2019-04-25T03:10:26.682Z,3.67
2019-04-25T03:12:54.481Z,3.67
2019-04-25T03:15:24.313Z,2.80
2019-04-25T03:17:54.632Z,4.17
2019-04-25T03:20:30.504Z,3.20
2019-04-25T03:23:01.209Z,3.80
2019-04-25T03:25:29.892Z,3.73
2019-04-25T03:27:59.418Z,3.70
2019-04-25T03:30:28.019Z,3.23
2019-04-25T03:32:56.544Z,2.77
2019-04-25T03:35:25.071Z,3.20
2019-04-25T03:37:54.489Z,3.40
2019-04-25T03:40:23.517Z,3.60
2019-04-25T03:42:53.756Z,3.17
2019-04-25T03:45:23.617Z,2.50
2019-04-25T03:47:53.186Z,3.47
2019-04-25T03:50:23.177Z,3.30
2019-04-25T03:52:51.819Z,2.57
2019-04-25T03:55:20.264Z,3.10
2019-04-25T03:57:48.727Z,3.50
2019-04-25T04:00:17.316Z,2.83
2019-04-25T04:02:45.779Z,4.10
2019-04-25T04:05:14.963Z,3.20
2019-04-25T04:07:43.658Z,3.47
2019-04-25T04:10:14.197Z,3.90
2019-04-25T04:12:44.210Z,3.27
2019-04-25T04:15:14.517Z,4.50
2019-04-25T04:18:00.111Z,3.40
2019-04-25T04:20:36.203Z,4.50
2019-04-25T04:23:13.488Z,3.93
2019-04-25T04:25:43.277Z,3.20
2019-04-25T04:28:13.777Z,3.83
2019-04-25T04:30:43.560Z,3.87
2019-04-25T04:33:23.096Z,4.03
2019-04-25T04:35:43.898Z,4.47
2019-04-25T04:38:14.100Z,3.73
2019-04-25T04:40:44.197Z,3.90
2019-04-25T04:43:14.476Z,3.07
2019-04-25T04:45:44.977Z,3.63
2019-04-25T04:48:14.507Z,3.37
2019-04-25T04:50:43.666Z,3.90
2019-04-25T04:53:13.203Z,4.93
2019-04-25T04:55:43.163Z,3.20
2019-04-25T04:58:13.058Z,3.77
2019-04-25T05:00:43.678Z,3.17
2019-04-25T05:03:16.890Z,3.63
2019-04-25T05:05:50.423Z,3.60
2019-04-25T05:08:26.500Z,3.40
2019-04-25T05:10:57.290Z,3.10
2019-04-25T05:13:25.288Z,4.17
2019-04-25T05:15:53.823Z,3.50
2019-04-25T05:18:36.617Z,3.60
2019-04-25T05:20:54.131Z,3.73
2019-04-25T05:23:23.443Z,3.37
2019-04-25T05:25:53.918Z,5.10
2019-04-25T05:28:24.396Z,5.17
2019-04-25T05:31:00.899Z,3.70
2019-04-25T05:33:29.364Z,3.47
2019-04-25T05:35:57.819Z,3.00
2019-04-25T05:38:26.279Z,3.67
2019-04-25T05:40:56.375Z,3.00
2019-04-25T05:43:26.479Z,4.13
2019-04-25T05:45:55.012Z,2.87
2019-04-25T05:48:25.077Z,3.40
2019-04-25T05:50:53.786Z,3.77
2019-04-25T05:53:23.850Z,4.83
2019-04-25T05:55:53.975Z,4.00
2019-04-25T05:58:24.535Z,3.97
2019-04-25T06:00:54.313Z,3.03
2019-04-25T06:03:24.857Z,2.90
2019-04-25T06:05:53.454Z,2.07
2019-04-25T06:08:25.450Z,2.40
2019-04-25T06:10:55.432Z,2.67
2019-04-25T06:13:33.236Z,2.50
2019-04-25T06:16:03.636Z,2.70
2019-04-25T06:18:33.903Z,2.33
2019-04-25T06:21:03.124Z,2.30
2019-04-25T06:23:42.275Z,2.87
2019-04-25T06:26:22.534Z,2.67
2019-04-25T06:28:52.021Z,2.53
2019-04-25T06:31:13.752Z,1.83
2019-04-25T06:33:43.412Z,2.30
2019-04-25T06:36:11.978Z,2.40
2019-04-25T06:38:40.442Z,2.40
2019-04-25T06:41:08.950Z,2.60
2019-04-25T06:43:39.055Z,2.40
2019-04-25T06:46:24.809Z,2.40
2019-04-25T06:49:04.578Z,2.60
2019-04-25T06:51:48.748Z,2.50
2019-04-25T06:54:17.427Z,2.83
2019-04-25T06:56:46.096Z,2.47
2019-04-25T06:59:14.547Z,2.60
2019-04-25T07:01:43.968Z,3.17
2019-04-25T07:04:14.090Z,2.40
2019-04-25T07:06:44.427Z,3.13
2019-04-25T07:09:14.654Z,2.50
2019-04-25T07:11:44.030Z,2.63
2019-04-25T07:14:14.187Z,2.33
2019-04-25T07:16:43.403Z,2.20
2019-04-25T07:19:12.101Z,2.43
2019-04-25T07:21:40.547Z,2.07
2019-04-25T07:24:09.078Z,2.40
2019-04-25T07:26:39.741Z,2.83
2019-04-25T07:29:19.443Z,2.23
2019-04-25T07:32:07.867Z,2.00
2019-04-25T07:34:36.684Z,2.17
2019-04-25T07:37:05.259Z,2.30
2019-04-25T07:39:34.408Z,2.60
2019-04-25T07:42:04.182Z,2.30
2019-04-25T07:44:41.997Z,2.27
2019-04-25T07:47:04.052Z,1.90
2019-04-25T07:49:33.582Z,1.80
2019-04-25T07:52:03.588Z,2.60
2019-04-25T07:54:34.018Z,2.00
2019-04-25T07:57:03.606Z,2.20
2019-04-25T07:59:34.967Z,2.53
2019-04-25T08:02:03.400Z,2.23
2019-04-25T08:04:32.005Z,1.50
2019-04-25T08:07:00.519Z,1.80
2019-04-25T08:09:29.519Z,1.47
2019-04-25T08:11:58.148Z,1.73
2019-04-25T08:14:34.915Z,1.73
2019-04-25T08:17:05.719Z,2.33
2019-04-25T08:19:35.406Z,2.50
2019-04-25T08:22:05.416Z,1.90
2019-04-25T08:24:35.919Z,2.03
2019-04-25T08:27:05.014Z,2.57
2019-04-25T08:29:36.336Z,2.20
2019-04-25T08:32:04.565Z,2.80
2019-04-25T08:34:35.730Z,1.73
2019-04-25T08:37:04.086Z,1.80
2019-04-25T08:39:34.106Z,1.73
2019-04-25T08:42:03.493Z,2.30
2019-04-25T08:44:33.074Z,1.87
2019-04-25T08:47:04.375Z,2.13
2019-04-25T08:49:40.343Z,2.50
2019-04-25T08:52:08.796Z,2.10
2019-04-25T08:54:41.488Z,1.90
2019-04-25T08:57:10.720Z,1.87
2019-04-25T08:59:47.197Z,1.97
2019-04-25T09:02:15.831Z,2.10
2019-04-25T09:04:51.767Z,1.77
2019-04-25T09:07:20.367Z,1.80
2019-04-25T09:09:48.815Z,1.97
2019-04-25T09:12:17.279Z,1.90
2019-04-25T09:14:46.465Z,1.90
2019-04-25T09:17:15.131Z,1.30
2019-04-25T09:19:44.431Z,2.03
2019-04-25T09:22:13.835Z,2.17
2019-04-25T09:24:44.108Z,1.70
2019-04-25T09:27:13.440Z,1.27
2019-04-25T09:29:43.099Z,1.47
2019-04-25T09:32:13.679Z,1.47
2019-04-25T09:34:43.710Z,1.50
2019-04-25T09:37:14.159Z,1.17
2019-04-25T09:39:53.764Z,1.80
2019-04-25T09:42:23.786Z,1.60
2019-04-25T09:45:06.048Z,1.27
2019-04-25T09:47:35.731Z,1.60
2019-04-25T09:50:07.319Z,1.87
2019-04-25T09:52:36.115Z,1.43
2019-04-25T09:55:09.542Z,1.40
2019-04-25T09:57:55.890Z,1.60
2019-04-25T10:00:26.324Z,1.50
2019-04-25T10:02:55.532Z,1.80
2019-04-25T10:05:24.287Z,1.80
2019-04-25T10:07:53.341Z,1.87
2019-04-25T10:10:22.151Z,1.77
2019-04-25T10:12:50.618Z,1.97
2019-04-25T10:15:25.227Z,1.67
2019-04-25T10:17:53.752Z,2.07
2019-04-25T10:20:23.175Z,1.83
2019-04-25T10:22:51.894Z,1.90
2019-04-25T10:25:20.504Z,1.73
2019-04-25T10:27:49.358Z,2.20
2019-04-25T10:30:23.064Z,2.00
2019-04-25T10:32:50.808Z,1.73
2019-04-25T10:35:19.466Z,2.00
2019-04-25T10:37:48.489Z,1.70
2019-04-25T10:40:18.614Z,1.70
2019-04-25T10:42:49.250Z,1.80
2019-04-25T10:45:23.186Z,2.70
2019-04-25T10:47:47.772Z,2.10
2019-04-25T10:50:16.559Z,2.13
2019-04-25T10:52:46.156Z,2.07
2019-04-25T10:55:15.407Z,2.17
2019-04-25T10:57:45.523Z,2.10
2019-04-25T11:00:36.628Z,1.60
2019-04-25T11:03:07.351Z,2.00
2019-04-25T11:05:35.879Z,1.80
2019-04-25T11:08:04.487Z,2.77
2019-04-25T11:10:34.377Z,2.00
2019-04-25T11:13:04.074Z,1.90
2019-04-25T11:15:33.985Z,1.90
2019-04-25T11:18:04.088Z,2.00
2019-04-25T11:20:33.862Z,1.60
2019-04-25T11:23:03.830Z,2.50
2019-04-25T11:25:34.178Z,2.50
2019-04-25T11:28:05.070Z,1.83
2019-04-25T11:30:33.671Z,1.90
2019-04-25T11:33:03.654Z,1.70
2019-04-25T11:35:32.244Z,1.83
2019-04-25T11:38:03.454Z,1.97
2019-04-25T11:40:36.832Z,1.80
2019-04-25T11:43:05.520Z,2.00
2019-04-25T11:45:37.350Z,2.20
2019-04-25T11:48:06.051Z,2.20
2019-04-25T11:50:36.931Z,2.13
2019-04-25T11:53:05.160Z,2.00
2019-04-25T11:55:33.752Z,2.10
2019-04-25T11:58:03.706Z,1.93
2019-04-25T12:00:33.762Z,1.53
2019-04-25T12:03:03.645Z,1.70
2019-04-25T12:05:32.232Z,1.97
2019-04-25T12:08:00.825Z,2.10
2019-04-25T12:10:30.057Z,1.70
2019-04-25T12:12:58.506Z,1.97
2019-04-25T12:15:27.118Z,1.50
2019-04-25T12:17:55.889Z,1.70
2019-04-25T12:20:24.575Z,1.40
2019-04-25T12:23:04.211Z,2.20
2019-04-25T12:25:23.704Z,1.90
2019-04-25T12:27:53.828Z,1.73
2019-04-25T12:30:36.752Z,1.30
2019-04-25T12:32:53.897Z,1.90
2019-04-25T12:35:24.226Z,2.23
2019-04-25T12:37:54.032Z,2.20
2019-04-25T12:40:24.210Z,2.03
2019-04-25T12:42:52.923Z,1.77
2019-04-25T12:45:28.886Z,1.83
2019-04-25T12:47:59.347Z,1.80
2019-04-25T12:50:27.990Z,2.20
2019-04-25T12:52:56.452Z,1.90
2019-04-25T12:55:24.980Z,1.67
2019-04-25T12:57:55.411Z,1.80
2019-04-25T13:00:27.695Z,1.90
2019-04-25T13:02:56.642Z,1.70
2019-04-25T13:05:25.239Z,2.03
2019-04-25T13:07:55.995Z,1.97
2019-04-25T13:10:24.083Z,1.80
2019-04-25T13:12:55.262Z,1.53
2019-04-25T13:15:25.762Z,1.73
2019-04-25T13:17:53.691Z,1.53
2019-04-25T13:20:22.211Z,2.00
2019-04-25T13:22:50.655Z,1.80
2019-04-25T13:25:20.927Z,1.67
2019-04-25T13:27:51.158Z,1.60
2019-04-25T13:30:30.383Z,1.30
2019-04-25T13:33:03.063Z,1.77
2019-04-25T13:35:39.133Z,2.17
2019-04-25T13:38:08.586Z,1.60
2019-04-25T13:40:37.219Z,1.53
2019-04-25T13:43:06.210Z,1.47
2019-04-25T13:45:34.864Z,2.03
2019-04-25T13:48:04.866Z,1.97
2019-04-25T13:50:34.421Z,2.03
2019-04-25T13:53:03.394Z,1.60
2019-04-25T13:55:32.206Z,1.70
2019-04-25T13:58:00.739Z,2.77
2019-04-25T14:00:30.174Z,1.73
2019-04-25T14:02:58.846Z,2.60
2019-04-25T14:05:28.347Z,1.53
2019-04-25T14:07:56.971Z,1.60
2019-04-25T14:10:26.454Z,1.50
2019-04-25T14:12:55.301Z,1.63
2019-04-25T14:15:25.310Z,2.00
2019-04-25T14:17:55.648Z,1.60
2019-04-25T14:20:43.806Z,1.90
2019-04-25T14:23:14.576Z,1.93
2019-04-25T14:25:42.815Z,2.20
2019-04-25T14:28:11.343Z,1.63
2019-04-25T14:30:40.112Z,1.97
2019-04-25T14:33:08.642Z,1.97
2019-04-25T14:35:37.290Z,1.70
2019-04-25T14:38:06.157Z,1.90
2019-04-25T14:40:34.711Z,2.17
2019-04-25T14:43:04.647Z,1.90
2019-04-25T14:45:43.063Z,2.30
2019-04-25T14:48:03.422Z,1.93
2019-04-25T14:50:31.971Z,1.90
2019-04-25T14:53:00.514Z,1.77
2019-04-25T14:55:45.719Z,2.27
2019-04-25T14:58:15.891Z,2.43
2019-04-25T15:00:46.260Z,2.87
2019-04-25T15:03:14.856Z,2.17
2019-04-25T15:05:43.618Z,1.90
2019-04-25T15:08:12.193Z,2.33
2019-04-25T15:10:40.727Z,1.60
2019-04-25T15:13:10.080Z,2.43
2019-04-25T15:15:38.684Z,1.93
2019-04-25T15:18:07.134Z,2.30
2019-04-25T15:20:35.598Z,2.00
2019-04-25T15:23:04.476Z,2.10
2019-04-25T15:25:32.994Z,2.97
2019-04-25T15:28:01.530Z,2.00
2019-04-25T15:30:34.606Z,2.20
2019-04-25T15:33:03.552Z,2.50
2019-04-25T15:35:34.329Z,2.23
2019-04-25T15:38:04.707Z,2.47
2019-04-25T15:40:34.879Z,2.53
2019-04-25T15:43:10.781Z,2.60
2019-04-25T15:45:46.948Z,2.70
2019-04-25T15:48:15.400Z,2.30
2019-04-25T15:50:44.199Z,2.47
2019-04-25T15:53:12.716Z,3.00
2019-04-25T15:55:41.584Z,3.33
2019-04-25T15:58:10.117Z,2.70
2019-04-25T16:00:39.211Z,3.10
2019-04-25T16:03:08.120Z,2.93
2019-04-25T16:05:36.883Z,2.60
2019-04-25T16:08:06.050Z,2.03
2019-04-25T16:10:34.570Z,2.80
2019-04-25T16:13:03.026Z,2.70
2019-04-25T16:15:31.615Z,2.37
2019-04-25T16:18:00.147Z,2.60
2019-04-25T16:20:29.499Z,2.53
2019-04-25T16:22:58.303Z,3.13
2019-04-25T16:25:27.241Z,2.20
2019-04-25T16:27:55.703Z,2.33
2019-04-25T16:30:25.938Z,2.30
2019-04-25T16:32:54.558Z,2.50
2019-04-25T16:35:23.166Z,2.30
2019-04-25T16:37:51.751Z,2.80
2019-04-25T16:40:20.517Z,2.90
2019-04-25T16:42:49.175Z,2.63
2019-04-25T16:45:17.688Z,2.40
2019-04-25T16:47:46.156Z,2.80
2019-04-25T16:50:15.923Z,2.90
2019-04-25T16:52:44.453Z,2.43
2019-04-25T16:55:13.671Z,2.80
2019-04-25T16:57:42.564Z,2.80
2019-04-25T17:00:30.851Z,2.47
2019-04-25T17:02:59.515Z,2.33
2019-04-25T17:05:30.831Z,3.50
2019-04-25T17:07:59.530Z,2.40
2019-04-25T17:10:28.130Z,2.00
2019-04-25T17:12:56.727Z,2.30
2019-04-25T17:15:32.380Z,2.83
2019-04-25T17:18:08.319Z,2.43
2019-04-25T17:20:38.487Z,2.20
2019-04-25T17:23:07.090Z,2.00
2019-04-25T17:25:35.543Z,2.03
2019-04-25T17:28:04.408Z,2.50
2019-04-25T17:30:34.772Z,2.30
2019-04-25T17:33:17.138Z,2.03
2019-04-25T17:35:55.731Z,2.93
2019-04-25T17:38:25.899Z,2.10
2019-04-25T17:40:54.348Z,2.23
2019-04-25T17:43:22.820Z,1.83
2019-04-25T17:45:51.341Z,1.97
2019-04-25T17:48:19.862Z,2.40
2019-04-25T17:50:48.343Z,2.00
2019-04-25T17:53:16.793Z,2.10
2019-04-25T17:55:45.863Z,3.00
2019-04-25T17:58:14.398Z,1.93
2019-04-25T18:00:45.056Z,1.87
2019-04-25T18:03:13.844Z,2.60
2019-04-25T18:05:42.362Z,2.60
2019-04-25T18:08:10.899Z,2.37
2019-04-25T18:10:39.446Z,2.60
2019-04-25T18:13:09.553Z,2.83
2019-04-25T18:15:48.775Z,2.50
2019-04-25T18:18:18.952Z,2.40
2019-04-25T18:20:47.622Z,2.17
2019-04-25T18:23:33.004Z,2.40
2019-04-25T18:26:03.110Z,2.50
2019-04-25T18:28:50.010Z,2.73
2019-04-25T18:31:18.572Z,2.30
2019-04-25T18:33:48.611Z,2.17
2019-04-25T18:36:18.736Z,2.60
2019-04-25T18:38:48.876Z,2.87
2019-04-25T18:41:28.191Z,2.30
2019-04-25T18:43:58.310Z,2.80
2019-04-25T18:46:30.827Z,3.00
2019-04-25T18:48:59.276Z,3.07
2019-04-25T18:51:27.739Z,2.53
2019-04-25T18:54:13.282Z,2.53
2019-04-25T18:56:43.451Z,3.07
2019-04-25T18:59:29.795Z,2.20
2019-04-25T19:02:05.580Z,2.10
2019-04-25T19:04:38.330Z,3.17
2019-04-25T19:07:07.023Z,2.33
2019-04-25T19:09:35.536Z,2.70
2019-04-25T19:12:04.171Z,2.70
2019-04-25T19:14:32.695Z,2.77
2019-04-25T19:17:01.161Z,2.70
2019-04-25T19:19:29.611Z,2.37
2019-04-25T19:21:58.075Z,2.70
2019-04-25T19:24:26.602Z,2.17
2019-04-25T19:26:55.136Z,3.10
2019-04-25T19:29:23.622Z,1.93
2019-04-25T19:31:53.305Z,2.40
2019-04-25T19:34:21.903Z,2.57
2019-04-25T19:36:51.178Z,2.80
2019-04-25T19:39:21.671Z,2.13
2019-04-25T19:42:10.164Z,2.37
2019-04-25T19:44:38.758Z,2.43
2019-04-25T19:47:07.297Z,2.60
2019-04-25T19:49:35.889Z,2.17
2019-04-25T19:52:04.423Z,2.97
2019-04-25T19:54:32.870Z,2.77
2019-04-25T19:57:01.346Z,3.40
2019-04-25T19:59:29.870Z,2.57
2019-04-25T20:01:59.960Z,2.90
2019-04-25T20:04:43.090Z,3.50
2019-04-25T20:07:20.079Z,2.50
2019-04-25T20:09:51.087Z,2.93
2019-04-25T20:12:21.350Z,2.83
2019-04-25T20:14:49.813Z,2.53
2019-04-25T20:17:18.262Z,3.03
2019-04-25T20:19:47.651Z,2.90
2019-04-25T20:22:16.259Z,2.30
2019-04-25T20:24:45.349Z,2.60
2019-04-25T20:27:14.748Z,3.00
2019-04-25T20:29:44.130Z,2.93
2019-04-25T20:32:13.823Z,2.17
2019-04-25T20:34:42.388Z,3.23
2019-04-25T20:37:10.886Z,2.20
2019-04-25T20:39:39.419Z,3.00
2019-04-25T20:42:07.888Z,2.20
2019-04-25T20:44:36.667Z,1.70
2019-04-25T20:47:05.390Z,2.37
2019-04-25T20:49:33.938Z,1.80
2019-04-25T20:52:02.388Z,2.40
2019-04-25T20:54:30.889Z,2.70
2019-04-25T20:56:59.342Z,2.13
2019-04-25T20:59:27.887Z,2.57
2019-04-25T21:01:56.350Z,2.37
2019-04-25T21:04:41.475Z,2.90
2019-04-25T21:07:11.036Z,2.30
2019-04-25T21:09:39.544Z,2.83
2019-04-25T21:12:08.346Z,2.33
2019-04-25T21:14:41.263Z,2.13
2019-04-25T21:17:14.095Z,3.00
2019-04-25T21:19:44.201Z,2.50
2019-04-25T21:22:12.646Z,3.53
2019-04-25T21:24:41.105Z,2.97
2019-04-25T21:27:09.641Z,2.20
2019-04-25T21:29:38.159Z,3.30
2019-04-25T21:32:06.692Z,2.80
2019-04-25T21:34:35.214Z,2.07
2019-04-25T21:37:04.115Z,2.47
2019-04-25T21:39:51.487Z,2.43
2019-04-25T21:42:21.951Z,2.07
2019-04-25T21:44:51.769Z,2.60
2019-04-25T21:47:20.967Z,2.50
2019-04-25T21:49:49.704Z,2.40
2019-04-25T21:52:18.524Z,2.27
2019-04-25T21:54:48.638Z,2.33
2019-04-25T21:57:17.395Z,2.27
2019-04-25T21:59:46.031Z,2.00
2019-04-25T22:02:14.980Z,2.27
2019-04-25T22:04:43.883Z,2.13
2019-04-25T22:07:13.139Z,2.97
2019-04-25T22:09:42.005Z,2.10
2019-04-25T22:12:11.883Z,2.07
2019-04-25T22:14:40.478Z,2.30
2019-04-25T22:17:09.579Z,2.23
2019-04-25T22:19:38.502Z,2.43
2019-04-25T22:22:07.247Z,2.33
2019-04-25T22:24:35.795Z,2.37
2019-04-25T22:27:06.027Z,2.20
2019-04-25T22:29:36.207Z,2.60
2019-04-25T22:32:08.904Z,2.10
2019-04-25T22:34:51.662Z,2.63
2019-04-25T22:37:09.596Z,2.10
2019-04-25T22:39:38.422Z,1.80
2019-04-25T22:42:07.063Z,2.17
2019-04-25T22:44:36.487Z,1.70
2019-04-25T22:47:06.325Z,2.33
2019-04-25T22:49:34.872Z,2.30
2019-04-25T22:52:03.568Z,2.57
2019-04-25T22:54:32.155Z,2.87
2019-04-25T22:57:01.784Z,2.80
2019-04-25T22:59:30.810Z,2.40
2019-04-25T23:02:12.795Z,2.50
2019-04-25T23:04:43.276Z,2.20
2019-04-25T23:07:12.301Z,3.10
2019-04-25T23:09:40.902Z,3.43
2019-04-25T23:12:09.651Z,2.93
2019-04-25T23:14:39.178Z,2.27
2019-04-25T23:17:07.648Z,2.43
2019-04-25T23:19:36.174Z,2.60
2019-04-25T23:22:05.666Z,2.53
2019-04-25T23:24:35.955Z,3.10
2019-04-25T23:27:06.610Z,3.00
2019-04-25T23:29:35.071Z,2.23
2019-04-25T23:32:04.026Z,2.70
2019-04-25T23:34:32.978Z,2.73
2019-04-25T23:37:01.431Z,3.40
2019-04-25T23:39:30.527Z,2.60
2019-04-25T23:41:59.063Z,3.17
2019-04-25T23:44:27.595Z,2.40
2019-04-25T23:46:56.467Z,2.80
2019-04-25T23:49:24.994Z,3.30
2019-04-25T23:51:53.527Z,3.50
2019-04-25T23:54:22.065Z,3.67
2019-04-25T23:56:50.587Z,2.90
2019-04-25T23:59:19.118Z,2.27
